Elko, NV

6:05 AM PDT on August 29, 2014 (GMT -0700)
Elko 0.9 SE | Change Station
CLOSE
Current Station
Personal Weather Station
Location: Elko, NV
Elevation: 5075 ft
Nearby Weather Stations

Elev 5075 ft 40.83 °N, 115.75 °W | Updated 12 seconds ago

Clear
Clear
49.6 °F
Feels Like 50 °F
N
0.0
Wind Variable Wind from East
Gusts 0.0 mph

Today
High -- | Low -- °F
--% Chance of Precip.
Yesterday
High -- | Low -- °F
Precip. -- in
6:06 AM 7:19 PM
Waxing Crescent, 14% visible
Pressure 29.97 in
Visibility 10.0 miles
Clouds Clear
Windchill 50 °F
Dew Point 35 °F
Humidity 58%
Rainfall 0.00 in
Snow Depth 0 in
UV 0 out of 12
Pollen 8.60 out of 12
Air Quality Not available.
Flu Activity Not available.
METAR KEKO 291256Z AUTO 03003KT 10SM CLR 11/02 A3012 RMK AO2 SLP149 T01060022

More Conditions Fewer Conditions

Pressure 29.97 in
Visibility 10.0 miles
Clouds Clear
Windchill 50 °F
Dew Point 35 °F
Humidity 58%
Rainfall 0.00 in
Snow Depth 0 in
UV 0 out of 12
Pollen 8.60 out of 12
Air Quality Not available.
Flu Activity Not available.
METAR KEKO 291256Z AUTO 03003KT 10SM CLR 11/02 A3012 RMK AO2 SLP149 T01060022

More Conditions Fewer Conditions

10-Day Weather Forecast

Almanac

Astronomy

Aug. 29, 2014 Rise Set
Actual Time 6:06 AM PDT 7:19 PM PDT
Civil Twilight 5:38 AM PDT 7:47 PM PDT
Nautical Twilight 5:04 AM PDT 8:21 PM PDT
Astronomical Twilight 4:28 AM PDT 8:57 PM PDT
Moon 10:02 AM PDT 9:18 PM PDT
Length of Visible Light 14h 09m
Length of Day
13h 12m
Tomorrow will be 2m 34s shorter.
Waxing Crescent, 14% of the Moon is Illuminated
Today
Waxing Crescent
Sep 2
First Quarter
Sep 8
Full
Sep 15
Last Quarter
Sep 24
New

Today's Extremes

State Highs State Lows

Community

WunderPhotos

Upload Photos

1,748,223 photos uploaded!

Nearby

Snow Depth

Station Depth Elevation
Lamoille #3 0 in 7700 ft
Dorsey Basin 0 in 8100 ft
Green Mountain 0 in 8000 ft
Taylor Canyon 1 in 6200 ft
Jacks Peak 4 in 8420 ft

Earthquake Activity

City Distance Mag. Time & Date
No recent earthquake activity has been reported nearby.
Minimum magnitude displayed is 2.5.

Coastal Water Temperatures

Place Temperature
No Stations Reporting

Nearby Weather Stations